Time;durP1;ratioP1;P1;durP2;ratioP2;P2;SDS_P1;SDS_P2;PMS_P1;PMS_P2;Temp;Humidity;BMP_temperature;BMP_pressure;BME280_temperature;BME280_humidity;BME280_pressure;Samples;Min_cycle;Max_cycle;Signal;HPM_P1;HPM_P2
2022/06/19 00:01:05;;;;;;;11.60;5.05;;;;;;;;;;6181205;28;20137;-81
2022/06/19 00:04:07;;;;;;;9.27;5.05;;;;;;;;;;6183531;28;20046;-80
2022/06/19 00:07:10;;;;;;;12.60;4.90;;;;;;;;;;6180045;28;20112;-80
2022/06/19 00:10:12;;;;;;;7.65;4.82;;;;;;;;;;6176562;28;20084;-80
2022/06/19 00:13:14;;;;;;;10.30;5.65;;;;;;;;;;6163505;28;20126;-80
2022/06/19 00:16:15;;;;;;;13.32;5.20;;;;;;;;;;6184721;28;20057;-81
2022/06/19 00:19:17;;;;;;;10.82;4.90;;;;;;;;;;6192956;28;20039;-81
2022/06/19 00:22:19;;;;;;;8.13;4.97;;;;;;;;;;6189999;28;20073;-80
2022/06/19 00:25:21;;;;;;;10.15;5.40;;;;;;;;;;6165943;28;20142;-80
2022/06/19 00:28:23;;;;;;;12.25;5.60;;;;;;;;;;6165975;28;20127;-79
2022/06/19 00:31:26;;;;;;;10.60;5.18;;;;;;;;;;6184735;28;20047;-80
2022/06/19 00:34:29;;;;;;;11.65;5.20;;;;;;;;;;6194974;28;20057;-80
2022/06/19 00:37:31;;;;;;;10.23;5.30;;;;;;;;;;6207487;28;20109;-82
2022/06/19 00:40:33;;;;;;;8.07;5.25;;;;;;;;;;6188198;28;20482;-82
2022/06/19 00:44:12;;;;;;;9.50;5.30;;;;;;;;;;6189266;28;20074;-80
2022/06/19 00:47:21;;;;;;;10.48;4.97;;;;;;;;;;6182767;28;20638;-82
2022/06/19 00:50:27;;;;;;;13.35;5.40;;;;;;;;;;6178598;28;20069;-81
2022/06/19 00:53:35;;;;;;;6.50;4.85;;;;;;;;;;6175544;28;20564;-82
2022/06/19 00:56:36;;;;;;;12.27;5.88;;;;;;;;;;6174860;28;20043;-81
2022/06/19 00:59:40;;;;;;;13.32;5.45;;;;;;;;;;6161190;28;20791;-81
2022/06/19 01:02:44;;;;;;;7.03;4.68;;;;;;;;;;6172698;28;20061;-81
2022/06/19 01:05:47;;;;;;;9.05;5.10;;;;;;;;;;6180621;28;20189;-80
2022/06/19 01:08:50;;;;;;;10.20;4.75;;;;;;;;;;6154429;28;20729;-79
2022/06/19 01:11:52;;;;;;;11.68;5.00;;;;;;;;;;6185039;28;20128;-80
2022/06/19 01:15:02;;;;;;;7.68;5.20;;;;;;;;;;6186470;28;20531;-80
2022/06/19 01:18:08;;;;;;;11.27;5.07;;;;;;;;;;6186832;28;20047;-80
2022/06/19 01:21:42;;;;;;;9.77;5.22;;;;;;;;;;6188390;28;20098;-80
2022/06/19 01:24:55;;;;;;;12.32;5.22;;;;;;;;;;6166348;28;20047;-81
2022/06/19 01:31:55;;;;;;;12.60;5.30;;;;;;;;;;6178820;28;20050;-80
2022/06/19 01:34:58;;;;;;;10.48;5.07;;;;;;;;;;6184923;28;20381;-81
2022/06/19 01:38:01;;;;;;;;;;;;;;;;;;6153510;28;20500;-81
2022/06/19 01:41:07;;;;;;;13.45;5.50;;;;;;;;;;6176550;28;20379;-81
2022/06/19 01:44:09;;;;;;;12.55;4.80;;;;;;;;;;6181441;28;20110;-80
2022/06/19 01:47:12;;;;;;;13.18;5.10;;;;;;;;;;6182907;28;20091;-82
2022/06/19 01:50:18;;;;;;;13.95;5.25;;;;;;;;;;6178904;28;20592;-82
2022/06/19 01:53:28;;;;;;;10.32;4.78;;;;;;;;;;6155136;28;20050;-81
2022/06/19 01:56:30;;;;;;;13.00;5.53;;;;;;;;;;6168174;28;20420;-82
2022/06/19 01:59:36;;;;;;;10.82;5.78;;;;;;;;;;6177680;28;20071;-82
2022/06/19 02:02:41;;;;;;;11.07;4.65;;;;;;;;;;6186076;28;20046;-82
2022/06/19 02:05:43;;;;;;;8.25;4.82;;;;;;;;;;6180188;28;20062;-81
2022/06/19 02:08:45;;;;;;;11.90;5.07;;;;;;;;;;6159014;28;20111;-82
2022/06/19 02:11:47;;;;;;;9.27;4.85;;;;;;;;;;6157344;28;20595;-81
2022/06/19 02:14:50;;;;;;;11.48;5.47;;;;;;;;;;6175629;28;20065;-82
2022/06/19 02:17:53;;;;;;;9.55;4.93;;;;;;;;;;6185207;28;20038;-81
2022/06/19 02:20:55;;;;;;;;;;;;;;;;;;6186005;28;20378;-81
2022/06/19 02:23:56;;;;;;;8.82;4.90;;;;;;;;;;6174878;28;19921;-81
2022/06/19 02:26:58;;;;;;;11.40;4.97;;;;;;;;;;6190014;28;20566;-81
2022/06/19 02:30:01;;;;;;;11.48;4.82;;;;;;;;;;6180028;28;20053;-78
2022/06/19 02:33:04;;;;;;;;;;;;;;;;;;6185261;28;20045;-80
2022/06/19 02:36:33;;;;;;;10.18;4.55;;;;;;;;;;6184116;28;19928;-80
2022/06/19 02:39:37;;;;;;;10.02;4.53;;;;;;;;;;6168748;28;20059;-79
2022/06/19 02:42:42;;;;;;;9.38;5.10;;;;;;;;;;6188798;28;20122;-79
2022/06/19 02:45:44;;;;;;;10.68;4.93;;;;;;;;;;6184059;28;20125;-80
2022/06/19 02:48:46;;;;;;;11.90;4.77;;;;;;;;;;6177879;28;20070;-79
2022/06/19 02:51:47;;;;;;;11.52;4.93;;;;;;;;;;6180187;28;20133;-79
2022/06/19 02:54:49;;;;;;;10.38;5.07;;;;;;;;;;6177063;28;20046;-80
2022/06/19 02:57:51;;;;;;;10.10;4.57;;;;;;;;;;6173050;28;20101;-79
2022/06/19 03:00:53;;;;;;;11.77;5.37;;;;;;;;;;6185120;28;20046;-79
2022/06/19 03:03:55;;;;;;;10.32;5.18;;;;;;;;;;6181063;28;20392;-80
2022/06/19 03:06:59;;;;;;;10.23;4.82;;;;;;;;;;6185727;28;20123;-79
2022/06/19 03:10:00;;;;;;;11.82;4.70;;;;;;;;;;6183158;28;20058;-80
2022/06/19 03:13:02;;;;;;;8.00;5.10;;;;;;;;;;6179352;28;20395;-80
2022/06/19 03:16:07;;;;;;;7.80;4.45;;;;;;;;;;6177410;28;20046;-80
2022/06/19 03:19:09;;;;;;;12.00;4.85;;;;;;;;;;6182720;28;20125;-79
2022/06/19 03:22:11;;;;;;;8.48;4.45;;;;;;;;;;6162563;28;20042;-79
2022/06/19 03:25:13;;;;;;;8.57;4.18;;;;;;;;;;6180087;28;20067;-78
2022/06/19 03:28:15;;;;;;;8.97;5.13;;;;;;;;;;6189039;28;20556;-79
2022/06/19 03:31:19;;;;;;;12.05;4.38;;;;;;;;;;6161513;28;20053;-78
2022/06/19 03:34:21;;;;;;;15.05;5.10;;;;;;;;;;6187224;28;20433;-78
2022/06/19 03:37:22;;;;;;;12.70;4.80;;;;;;;;;;6188432;28;20046;-80
2022/06/19 03:40:24;;;;;;;9.38;4.32;;;;;;;;;;6177675;28;20157;-79
2022/06/19 03:43:26;;;;;;;10.77;4.88;;;;;;;;;;6180912;28;20102;-80
2022/06/19 03:46:27;;;;;;;10.13;4.53;;;;;;;;;;6180799;28;20057;-80
2022/06/19 03:49:29;;;;;;;11.05;4.90;;;;;;;;;;6178142;28;20074;-81
2022/06/19 03:52:31;;;;;;;8.20;5.03;;;;;;;;;;6166410;28;20455;-81
2022/06/19 03:55:33;;;;;;;12.95;5.00;;;;;;;;;;6190090;28;20102;-80
2022/06/19 03:58:47;;;;;;;10.07;4.00;;;;;;;;;;6187373;28;20096;-80
2022/06/19 04:01:49;;;;;;;11.57;4.70;;;;;;;;;;6182024;28;20046;-80
2022/06/19 04:04:50;;;;;;;10.73;4.57;;;;;;;;;;6153611;28;20058;-80
2022/06/19 04:07:52;;;;;;;11.98;4.85;;;;;;;;;;6186317;28;20074;-80
2022/06/19 04:10:54;;;;;;;8.93;4.90;;;;;;;;;;6181560;28;20548;-80
2022/06/19 04:13:56;;;;;;;15.60;5.68;;;;;;;;;;6179270;28;20050;-80
2022/06/19 04:16:58;;;;;;;14.02;4.75;;;;;;;;;;6178645;28;20047;-81
2022/06/19 04:19:59;;;;;;;10.98;4.63;;;;;;;;;;6178709;28;20467;-82
2022/06/19 04:23:01;;;;;;;11.20;5.30;;;;;;;;;;6184070;28;20047;-82
2022/06/19 04:26:07;;;;;;;12.85;5.20;;;;;;;;;;6175475;28;20078;-83
2022/06/19 04:29:10;;;;;;;8.88;4.68;;;;;;;;;;6181418;28;20039;-80
2022/06/19 04:32:13;;;;;;;10.60;4.15;;;;;;;;;;6175141;28;20117;-80
2022/06/19 04:35:14;;;;;;;11.15;4.55;;;;;;;;;;6183548;28;20530;-81
2022/06/19 04:38:16;;;;;;;10.07;4.75;;;;;;;;;;6155198;28;20047;-80
2022/06/19 04:41:25;;;;;;;10.27;4.35;;;;;;;;;;6182514;28;20043;-81
2022/06/19 04:44:27;;;;;;;10.55;5.05;;;;;;;;;;6185194;28;20053;-80
2022/06/19 04:47:29;;;;;;;10.98;4.80;;;;;;;;;;6152434;28;20047;-82
2022/06/19 04:50:30;;;;;;;7.82;4.50;;;;;;;;;;6181517;28;20125;-80
2022/06/19 04:53:33;;;;;;;13.18;4.50;;;;;;;;;;6184648;28;20633;-81
2022/06/19 04:56:35;;;;;;;11.03;5.60;;;;;;;;;;6182968;28;20050;-80
2022/06/19 04:59:36;;;;;;;12.73;5.50;;;;;;;;;;6182412;28;20143;-80
2022/06/19 05:02:38;;;;;;;14.07;5.13;;;;;;;;;;6187790;28;20051;-81
2022/06/19 05:05:40;;;;;;;10.95;4.82;;;;;;;;;;6185739;28;20113;-82
2022/06/19 05:08:42;;;;;;;10.77;4.03;;;;;;;;;;6184109;28;20448;-81
2022/06/19 05:11:43;;;;;;;10.38;4.70;;;;;;;;;;6162923;28;20802;-80
2022/06/19 05:14:45;;;;;;;9.68;4.50;;;;;;;;;;6158743;28;20521;-80
2022/06/19 05:17:47;;;;;;;11.88;4.68;;;;;;;;;;6167247;28;20177;-81
2022/06/19 05:20:56;;;;;;;11.82;4.38;;;;;;;;;;6180443;28;20165;-81
2022/06/19 05:23:57;;;;;;;17.08;4.63;;;;;;;;;;6184738;28;20132;-81
2022/06/19 05:26:59;;;;;;;7.93;4.13;;;;;;;;;;6190952;28;20050;-82
2022/06/19 05:30:01;;;;;;;11.50;4.63;;;;;;;;;;6183326;28;20049;-80
2022/06/19 05:33:03;;;;;;;12.60;4.82;;;;;;;;;;6183478;28;20109;-81
2022/06/19 05:36:04;;;;;;;10.90;4.47;;;;;;;;;;6184174;28;20038;-81
2022/06/19 05:39:06;;;;;;;10.65;4.38;;;;;;;;;;6179421;28;20121;-81
2022/06/19 05:42:08;;;;;;;10.70;4.47;;;;;;;;;;6166133;28;20051;-81
2022/06/19 05:45:10;;;;;;;9.00;4.85;;;;;;;;;;6185533;28;20053;-81
2022/06/19 05:48:12;;;;;;;8.17;4.40;;;;;;;;;;6183338;28;20121;-79
2022/06/19 05:51:20;;;;;;;8.63;4.70;;;;;;;;;;6162738;28;20043;-81
2022/06/19 05:54:21;;;;;;;11.73;4.45;;;;;;;;;;6179636;28;20138;-81
2022/06/19 05:57:23;;;;;;;12.25;4.63;;;;;;;;;;6185113;28;20049;-80
2022/06/19 06:00:25;;;;;;;9.60;4.43;;;;;;;;;;6165353;28;20059;-81
2022/06/19 06:03:27;;;;;;;13.30;5.55;;;;;;;;;;6186740;28;20122;-81
2022/06/19 06:06:30;;;;;;;11.63;4.80;;;;;;;;;;6189258;28;20118;-81
2022/06/19 06:09:34;;;;;;;11.57;4.57;;;;;;;;;;6192055;28;20047;-81
2022/06/19 06:12:35;;;;;;;12.82;4.28;;;;;;;;;;6185701;28;20053;-81
2022/06/19 06:15:37;;;;;;;13.82;4.57;;;;;;;;;;6164163;28;20090;-82
2022/06/19 06:18:39;;;;;;;10.10;4.07;;;;;;;;;;6162128;28;20051;-81
2022/06/19 06:21:42;;;;;;;13.07;4.37;;;;;;;;;;6177554;28;20050;-80
2022/06/19 06:24:43;;;;;;;11.85;4.43;;;;;;;;;;6167620;28;20539;-82
2022/06/19 06:27:45;;;;;;;12.65;4.70;;;;;;;;;;6190098;28;20106;-82
2022/06/19 06:30:46;;;;;;;10.57;4.40;;;;;;;;;;6165102;28;20627;-81
2022/06/19 06:33:49;;;;;;;14.45;4.53;;;;;;;;;;6187069;28;20488;-82
2022/06/19 06:36:51;;;;;;;11.02;4.32;;;;;;;;;;6165180;28;20132;-81
2022/06/19 06:39:52;;;;;;;8.63;4.22;;;;;;;;;;6170609;28;20525;-80
2022/06/19 06:42:54;;;;;;;12.57;4.80;;;;;;;;;;6179052;28;20092;-80
2022/06/19 06:46:07;;;;;;;11.20;5.07;;;;;;;;;;6176338;28;20201;-78
2022/06/19 06:49:09;;;;;;;10.65;4.57;;;;;;;;;;6169315;28;20046;-79
2022/06/19 06:52:11;;;;;;;13.85;4.85;;;;;;;;;;6149883;28;20051;-79
2022/06/19 06:55:13;;;;;;;10.82;4.10;;;;;;;;;;6162375;28;20480;-79
2022/06/19 06:58:14;;;;;;;14.73;4.68;;;;;;;;;;6176695;28;20189;-79
2022/06/19 07:01:19;;;;;;;7.68;4.47;;;;;;;;;;6178872;28;20386;-80
2022/06/19 07:04:20;;;;;;;14.20;5.15;;;;;;;;;;6175722;28;20054;-80
2022/06/19 07:07:22;;;;;;;20.20;5.03;;;;;;;;;;6175392;28;20050;-79
2022/06/19 07:10:24;;;;;;;16.02;5.15;;;;;;;;;;6175633;28;20137;-79
2022/06/19 07:13:26;;;;;;;12.63;4.95;;;;;;;;;;6186611;28;20039;-79
2022/06/19 07:16:28;;;;;;;9.53;4.77;;;;;;;;;;6183178;28;20459;-81
2022/06/19 07:19:30;;;;;;;16.13;5.43;;;;;;;;;;6174422;28;20051;-80
2022/06/19 07:22:31;;;;;;;12.50;5.50;;;;;;;;;;6182915;28;20424;-80
2022/06/19 07:25:33;;;;;;;14.43;5.40;;;;;;;;;;6177250;28;20052;-80
2022/06/19 07:28:35;;;;;;;16.83;5.40;;;;;;;;;;6182571;28;20224;-80
2022/06/19 07:31:36;;;;;;;12.63;5.10;;;;;;;;;;6180727;28;20448;-80
2022/06/19 07:34:41;;;;;;;12.40;6.07;;;;;;;;;;6181350;28;20043;-81
2022/06/19 07:37:43;;;;;;;13.15;5.25;;;;;;;;;;6173026;28;20113;-80
2022/06/19 07:40:45;;;;;;;10.27;5.65;;;;;;;;;;6161327;28;20050;-80
2022/06/19 07:43:50;;;;;;;14.48;5.88;;;;;;;;;;6179462;28;20093;-80
2022/06/19 07:50:15;;;;;;;16.50;5.80;;;;;;;;;;6146679;28;20046;-80
2022/06/19 07:53:16;;;;;;;14.55;6.22;;;;;;;;;;6147792;28;20050;-82
2022/06/19 07:56:18;;;;;;;13.00;5.37;;;;;;;;;;6146357;28;20244;-81
2022/06/19 07:59:20;;;;;;;12.20;5.38;;;;;;;;;;6167735;28;20474;-82
2022/06/19 08:02:24;;;;;;;15.43;6.07;;;;;;;;;;6180849;28;20050;-82
2022/06/19 08:05:29;;;;;;;12.70;6.20;;;;;;;;;;6160437;28;20520;-83
2022/06/19 08:08:34;;;;;;;14.57;6.63;;;;;;;;;;6183124;28;20054;-82
2022/06/19 08:11:36;;;;;;;8.57;5.68;;;;;;;;;;6153533;28;20071;-80
2022/06/19 08:14:38;;;;;;;9.60;5.50;;;;;;;;;;6177591;28;20050;-82
2022/06/19 08:17:40;;;;;;;13.25;6.30;;;;;;;;;;6192983;28;20110;-82
2022/06/19 08:20:42;;;;;;;13.20;5.88;;;;;;;;;;6183010;28;20057;-82
2022/06/19 08:23:43;;;;;;;9.77;5.63;;;;;;;;;;6182773;28;20043;-82
2022/06/19 08:26:45;;;;;;;13.52;6.50;;;;;;;;;;6188967;28;20057;-81
2022/06/19 08:29:47;;;;;;;11.43;6.03;;;;;;;;;;6185184;28;20177;-81
2022/06/19 08:32:49;;;;;;;12.80;6.13;;;;;;;;;;6178112;28;20047;-81
2022/06/19 08:35:56;;;;;;;10.00;5.60;;;;;;;;;;6186160;28;20126;-83
2022/06/19 08:39:01;;;;;;;14.35;5.97;;;;;;;;;;6153436;28;20103;-83
2022/06/19 08:42:40;;;;;;;12.45;6.15;;;;;;;;;;6157045;28;20053;-81
2022/06/19 08:46:03;;;;;;;13.80;6.32;;;;;;;;;;6179696;28;20094;-82
2022/06/19 08:49:53;;;;;;;14.73;5.78;;;;;;;;;;6173616;28;20420;-82
2022/06/19 08:53:22;;;;;;;16.73;6.60;;;;;;;;;;6166964;28;20066;-84
2022/06/19 08:56:50;;;;;;;10.05;6.18;;;;;;;;;;6173528;28;20038;-84
2022/06/19 09:00:16;;;;;;;13.15;6.40;;;;;;;;;;6166696;28;20162;-82
2022/06/19 09:07:29;;;;;;;;;;;;;;;;;;6168310;28;20065;-83
2022/06/19 09:10:48;;;;;;;13.38;6.22;;;;;;;;;;6194193;28;19965;-80
2022/06/19 09:13:49;;;;;;;12.77;6.45;;;;;;;;;;6177118;28;20054;-82
2022/06/19 09:17:03;;;;;;;12.13;6.97;;;;;;;;;;6181289;28;20272;-82
2022/06/19 09:20:15;;;;;;;18.10;7.55;;;;;;;;;;6175441;28;20053;-82
2022/06/19 09:23:37;;;;;;;11.05;6.40;;;;;;;;;;6160050;28;20051;-82
2022/06/19 09:26:56;;;;;;;15.90;6.30;;;;;;;;;;6175580;28;20705;-83
2022/06/19 09:30:04;;;;;;;11.15;6.57;;;;;;;;;;6164214;28;20570;-83
2022/06/19 09:33:17;;;;;;;11.18;6.80;;;;;;;;;;6182809;28;20513;-82
2022/06/19 09:36:24;;;;;;;9.80;6.38;;;;;;;;;;6185045;28;20070;-82
2022/06/19 09:39:57;;;;;;;10.00;6.53;;;;;;;;;;6198624;28;20054;-82
2022/06/19 09:43:28;;;;;;;11.77;6.40;;;;;;;;;;6177899;28;20050;-82
2022/06/19 09:46:37;;;;;;;9.93;6.70;;;;;;;;;;6179578;28;20086;-81
2022/06/19 09:49:46;;;;;;;10.13;6.22;;;;;;;;;;6180307;28;20393;-79
2022/06/19 09:53:02;;;;;;;10.30;6.15;;;;;;;;;;6183347;28;20102;-80
2022/06/19 09:56:33;;;;;;;9.23;6.10;;;;;;;;;;6184197;28;20050;-81
2022/06/19 09:59:49;;;;;;;9.95;6.50;;;;;;;;;;6167666;28;20094;-81
2022/06/19 10:03:21;;;;;;;9.57;6.45;;;;;;;;;;6179200;28;20463;-80
2022/06/19 10:06:26;;;;;;;;;;;;;;;;;;6183951;28;20146;-80
2022/06/19 10:09:35;;;;;;;11.30;6.22;;;;;;;;;;6181433;28;20080;-80
2022/06/19 10:12:43;;;;;;;8.25;6.18;;;;;;;;;;6181905;28;20121;-80
2022/06/19 10:15:46;;;;;;;8.57;5.90;;;;;;;;;;6181340;28;20051;-80
2022/06/19 10:18:52;;;;;;;12.88;6.82;;;;;;;;;;6181103;28;20078;-80
2022/06/19 10:22:36;;;;;;;12.35;6.38;;;;;;;;;;6179700;28;20127;-79
2022/06/19 10:26:07;;;;;;;11.98;6.60;;;;;;;;;;6179508;28;20129;-79
2022/06/19 10:29:30;;;;;;;10.60;6.80;;;;;;;;;;6164594;28;20054;-79
2022/06/19 10:33:14;;;;;;;11.40;6.10;;;;;;;;;;6177834;28;20099;-81
2022/06/19 10:36:21;;;;;;;12.23;6.68;;;;;;;;;;6164899;28;20050;-81
2022/06/19 10:39:23;;;;;;;10.48;6.63;;;;;;;;;;6169653;28;20110;-82
2022/06/19 10:42:27;;;;;;;12.18;6.30;;;;;;;;;;6179708;28;20432;-80
2022/06/19 10:45:43;;;;;;;12.63;6.68;;;;;;;;;;6160545;28;20093;-80
2022/06/19 10:49:03;;;;;;;11.23;7.18;;;;;;;;;;6169710;28;20073;-81
2022/06/19 10:52:31;;;;;;;13.52;7.03;;;;;;;;;;6169354;28;20186;-80
2022/06/19 10:56:01;;;;;;;12.77;7.35;;;;;;;;;;6161492;28;20050;-79
2022/06/19 10:59:05;;;;;;;11.75;6.47;;;;;;;;;;6170641;28;20086;-80
2022/06/19 11:06:06;;;;;;;9.27;5.63;;;;;;;;;;6160804;28;20140;-80
2022/06/19 11:09:17;;;;;;;14.15;5.90;;;;;;;;;;6170737;28;20913;-80
2022/06/19 11:12:19;;;;;;;11.93;6.10;;;;;;;;;;6178408;28;20042;-80
2022/06/19 11:15:43;;;;;;;9.57;5.97;;;;;;;;;;6172181;28;20647;-81
2022/06/19 11:18:48;;;;;;;12.43;5.13;;;;;;;;;;6177979;28;20047;-80
2022/06/19 11:21:49;;;;;;;9.52;5.40;;;;;;;;;;6175848;28;20109;-80
2022/06/19 11:24:53;;;;;;;11.13;5.82;;;;;;;;;;6178939;28;20111;-80
2022/06/19 11:28:07;;;;;;;9.77;5.90;;;;;;;;;;6182212;28;20077;-80
2022/06/19 11:31:15;;;;;;;8.70;5.40;;;;;;;;;;6170259;28;20046;-81
2022/06/19 11:37:56;;;;;;;11.80;5.80;;;;;;;;;;6176271;28;20153;-81
2022/06/19 11:40:57;;;;;;;11.40;5.78;;;;;;;;;;6180052;28;20130;-80
2022/06/19 11:44:11;;;;;;;10.85;5.70;;;;;;;;;;6171506;28;20354;-80
2022/06/19 11:47:17;;;;;;;9.27;5.30;;;;;;;;;;6168700;28;20083;-80
2022/06/19 11:50:20;;;;;;;11.35;5.88;;;;;;;;;;6166952;28;20058;-80
2022/06/19 11:53:28;;;;;;;12.60;6.00;;;;;;;;;;6145609;28;20134;-80
2022/06/19 11:56:38;;;;;;;9.73;5.50;;;;;;;;;;6163476;28;20051;-80
2022/06/19 11:59:47;;;;;;;11.45;5.93;;;;;;;;;;6164629;28;20055;-81
2022/06/19 12:02:53;;;;;;;6.53;5.28;;;;;;;;;;6169852;28;20058;-79
2022/06/19 12:06:01;;;;;;;8.90;5.50;;;;;;;;;;6174794;28;20086;-80
2022/06/19 12:09:05;;;;;;;11.15;5.68;;;;;;;;;;6176104;28;20105;-81
2022/06/19 12:12:17;;;;;;;10.43;5.82;;;;;;;;;;6151737;28;20078;-80
2022/06/19 12:15:25;;;;;;;;;;;;;;;;;;6169397;28;20066;-80
2022/06/19 12:18:28;;;;;;;11.40;5.63;;;;;;;;;;6173935;28;19993;-81
2022/06/19 12:21:41;;;;;;;10.38;5.95;;;;;;;;;;6150446;28;20437;-80
2022/06/19 12:24:57;;;;;;;10.27;4.95;;;;;;;;;;6174927;28;20130;-80
2022/06/19 12:28:15;;;;;;;10.80;5.55;;;;;;;;;;6173658;28;20046;-82
2022/06/19 12:31:21;;;;;;;10.50;4.97;;;;;;;;;;6166908;28;20157;-82
2022/06/19 12:34:32;;;;;;;11.73;6.05;;;;;;;;;;6167994;28;20053;-80
2022/06/19 12:37:34;;;;;;;8.80;5.70;;;;;;;;;;6166518;28;20051;-80
2022/06/19 12:40:45;;;;;;;14.48;6.18;;;;;;;;;;6183021;28;20051;-79
2022/06/19 12:44:06;;;;;;;11.27;5.65;;;;;;;;;;6173997;28;20051;-80
2022/06/19 12:47:20;;;;;;;11.40;5.68;;;;;;;;;;6171119;28;20051;-82
2022/06/19 12:50:43;;;;;;;9.07;5.50;;;;;;;;;;6167418;28;20042;-83
2022/06/19 12:53:50;;;;;;;13.02;5.22;;;;;;;;;;6167764;28;20108;-81
2022/06/19 12:57:13;;;;;;;11.73;5.25;;;;;;;;;;6173352;28;20081;-81
2022/06/19 13:00:37;;;;;;;13.10;5.78;;;;;;;;;;6168160;28;20815;-81
2022/06/19 13:03:57;;;;;;;11.25;6.25;;;;;;;;;;6175285;28;20831;-83
2022/06/19 13:07:37;;;;;;;9.60;6.15;;;;;;;;;;6178997;28;20369;-83
2022/06/19 13:10:54;;;;;;;12.10;5.70;;;;;;;;;;6174712;28;20859;-82
2022/06/19 13:14:38;;;;;;;12.82;5.93;;;;;;;;;;6182042;28;20540;-82
2022/06/19 13:17:50;;;;;;;12.95;6.05;;;;;;;;;;6173826;28;20164;-83
2022/06/19 13:20:59;;;;;;;9.82;5.40;;;;;;;;;;6174304;28;20471;-83
2022/06/19 13:24:16;;;;;;;12.88;5.60;;;;;;;;;;6175543;28;20124;-83
2022/06/19 13:27:48;;;;;;;10.65;6.18;;;;;;;;;;6183561;28;20046;-82
2022/06/19 13:31:20;;;;;;;11.00;6.57;;;;;;;;;;6177834;28;20554;-81
2022/06/19 13:34:28;;;;;;;9.55;5.90;;;;;;;;;;6185932;28;20227;-81
2022/06/19 13:38:01;;;;;;;16.20;6.47;;;;;;;;;;6174150;28;20122;-81
2022/06/19 13:41:21;;;;;;;12.15;6.00;;;;;;;;;;6173389;28;20093;-82
2022/06/19 13:44:54;;;;;;;9.75;5.93;;;;;;;;;;6175420;28;20046;-82
2022/06/19 13:48:10;;;;;;;13.48;5.97;;;;;;;;;;6171913;28;20126;-80
2022/06/19 13:51:22;;;;;;;11.48;6.03;;;;;;;;;;6175103;28;20065;-81
2022/06/19 13:54:42;;;;;;;;;;;;;;;;;;6171128;28;20524;-81
2022/06/19 13:57:56;;;;;;;13.00;6.07;;;;;;;;;;6182836;28;20013;-83
2022/06/19 14:01:19;;;;;;;6.63;5.45;;;;;;;;;;6180652;28;20046;-83
2022/06/19 14:04:47;;;;;;;9.60;5.40;;;;;;;;;;6177965;28;20043;-81
2022/06/19 14:07:52;;;;;;;13.02;5.57;;;;;;;;;;6159274;28;20054;-82
2022/06/19 14:10:59;;;;;;;11.43;5.20;;;;;;;;;;6162771;28;20141;-82
2022/06/19 14:14:25;;;;;;;9.65;5.10;;;;;;;;;;6178127;28;20062;-83
2022/06/19 14:17:42;;;;;;;9.95;4.47;;;;;;;;;;6185781;28;20126;-82
2022/06/19 14:20:55;;;;;;;11.50;4.95;;;;;;;;;;6153753;28;20050;-82
2022/06/19 14:24:02;;;;;;;10.10;5.30;;;;;;;;;;6160027;28;20078;-82
2022/06/19 14:27:32;;;;;;;10.30;4.78;;;;;;;;;;6178661;28;20130;-82
2022/06/19 14:30:43;;;;;;;8.77;4.88;;;;;;;;;;6174237;28;20046;-83
2022/06/19 14:33:48;;;;;;;11.82;5.00;;;;;;;;;;6183527;28;20420;-81
2022/06/19 14:36:49;;;;;;;7.93;4.53;;;;;;;;;;6182503;28;20077;-82
2022/06/19 14:39:52;;;;;;;9.32;4.93;;;;;;;;;;6174490;28;20042;-82
2022/06/19 14:43:09;;;;;;;10.32;4.40;;;;;;;;;;6173557;28;20046;-84
2022/06/19 14:46:31;;;;;;;8.85;4.50;;;;;;;;;;6164541;28;20062;-84
2022/06/19 14:49:54;;;;;;;7.32;4.60;;;;;;;;;;6166537;28;20050;-82
2022/06/19 14:53:22;;;;;;;10.23;4.95;;;;;;;;;;6176624;28;20084;-84
2022/06/19 14:56:45;;;;;;;12.10;5.10;;;;;;;;;;6183074;28;20046;-82
2022/06/19 14:59:58;;;;;;;9.85;5.22;;;;;;;;;;6150146;28;20061;-81
2022/06/19 15:03:04;;;;;;;10.50;5.20;;;;;;;;;;6168818;28;20413;-82
2022/06/19 15:06:18;;;;;;;11.18;5.53;;;;;;;;;;6174375;28;20128;-82
2022/06/19 15:09:27;;;;;;;12.30;5.90;;;;;;;;;;6178107;28;20051;-82
2022/06/19 15:12:29;;;;;;;11.60;5.95;;;;;;;;;;6168899;28;20042;-82
2022/06/19 15:15:36;;;;;;;10.85;6.10;;;;;;;;;;6182475;28;20109;-82
2022/06/19 15:18:46;;;;;;;12.27;6.40;;;;;;;;;;6172395;28;20057;-83
2022/06/19 15:21:47;;;;;;;10.02;6.10;;;;;;;;;;6175778;28;20069;-82
2022/06/19 15:24:49;;;;;;;11.02;5.57;;;;;;;;;;6174806;28;20062;-81
2022/06/19 15:27:51;;;;;;;8.63;6.30;;;;;;;;;;6175438;28;20125;-80
2022/06/19 15:30:53;;;;;;;13.25;6.30;;;;;;;;;;6175594;28;20042;-80
2022/06/19 15:33:55;;;;;;;13.43;6.20;;;;;;;;;;6165326;28;20042;-82
2022/06/19 15:36:56;;;;;;;10.32;6.47;;;;;;;;;;6180281;28;20129;-82
2022/06/19 15:40:13;;;;;;;7.70;5.63;;;;;;;;;;6166074;28;20101;-81
2022/06/19 15:43:36;;;;;;;7.85;5.72;;;;;;;;;;6165346;28;20043;-80
2022/06/19 15:47:12;;;;;;;13.73;5.70;;;;;;;;;;6172218;28;20042;-81
2022/06/19 15:50:25;;;;;;;10.88;5.60;;;;;;;;;;6170953;28;20585;-81
2022/06/19 15:53:26;;;;;;;;;;;;;;;;;;6165910;28;20090;-81
2022/06/19 15:56:44;;;;;;;12.93;4.68;;;;;;;;;;6160964;28;19972;-80
2022/06/19 15:59:48;;;;;;;9.77;4.53;;;;;;;;;;6168976;28;20067;-79
2022/06/19 16:03:00;;;;;;;8.60;4.15;;;;;;;;;;6177187;28;20515;-82
2022/06/19 16:06:17;;;;;;;10.27;4.68;;;;;;;;;;6195645;28;20053;-80
2022/06/19 16:09:23;;;;;;;7.80;4.20;;;;;;;;;;6196346;28;20129;-80
2022/06/19 16:12:34;;;;;;;9.38;4.32;;;;;;;;;;6179879;28;20087;-79
2022/06/19 16:15:36;;;;;;;6.60;3.83;;;;;;;;;;6177783;28;20051;-80
2022/06/19 16:18:38;;;;;;;9.07;4.15;;;;;;;;;;6177348;28;20047;-80
2022/06/19 16:21:49;;;;;;;12.23;4.90;;;;;;;;;;6151794;28;20079;-78
2022/06/19 16:24:52;;;;;;;9.95;4.10;;;;;;;;;;6154415;28;20043;-80
2022/06/19 16:27:57;;;;;;;7.68;4.03;;;;;;;;;;6152198;28;20057;-80
2022/06/19 16:30:58;;;;;;;7.00;4.05;;;;;;;;;;6169027;28;20046;-79
2022/06/19 16:34:09;;;;;;;9.38;4.45;;;;;;;;;;6172614;28;20193;-79
2022/06/19 16:44:09;;;;;;;7.25;3.97;;;;;;;;;;6188459;28;20089;-82
2022/06/19 16:47:20;;;;;;;8.75;4.38;;;;;;;;;;6178324;28;20419;-81
2022/06/19 16:50:23;;;;;;;9.13;3.70;;;;;;;;;;6178371;28;20479;-81
2022/06/19 16:53:31;;;;;;;8.20;3.58;;;;;;;;;;6155698;28;20051;-81
2022/06/19 16:56:33;;;;;;;9.43;3.72;;;;;;;;;;6172340;28;20137;-80
2022/06/19 16:59:36;;;;;;;8.40;4.40;;;;;;;;;;6179627;28;20039;-82
2022/06/19 17:02:53;;;;;;;7.80;4.07;;;;;;;;;;6181081;28;20129;-81
2022/06/19 17:05:57;;;;;;;8.65;4.45;;;;;;;;;;6180995;28;20041;-82
2022/06/19 17:09:09;;;;;;;8.15;4.63;;;;;;;;;;6149089;28;20059;-82
2022/06/19 17:12:24;;;;;;;8.37;3.70;;;;;;;;;;6158063;28;20213;-80
2022/06/19 17:15:27;;;;;;;11.68;4.10;;;;;;;;;;6160116;28;20151;-82
2022/06/19 17:18:50;;;;;;;8.45;4.10;;;;;;;;;;6161173;28;20051;-81
2022/06/19 17:21:55;;;;;;;10.80;3.95;;;;;;;;;;6182614;28;20117;-83
2022/06/19 17:25:04;;;;;;;11.05;4.05;;;;;;;;;;6179136;28;20042;-83
2022/06/19 17:28:09;;;;;;;10.18;3.78;;;;;;;;;;6185655;28;20054;-82
2022/06/19 17:31:11;;;;;;;7.55;3.53;;;;;;;;;;6154662;28;20058;-82
2022/06/19 17:34:23;;;;;;;7.38;3.50;;;;;;;;;;6162320;28;20046;-83
2022/06/19 17:37:28;;;;;;;8.33;3.97;;;;;;;;;;6169947;28;20069;-82
2022/06/19 17:40:42;;;;;;;6.72;3.95;;;;;;;;;;6167371;28;20523;-82
2022/06/19 17:43:47;;;;;;;7.45;3.85;;;;;;;;;;6187480;28;20540;-82
2022/06/19 17:47:01;;;;;;;7.68;3.55;;;;;;;;;;6180407;28;20520;-82
2022/06/19 17:50:35;;;;;;;8.50;4.22;;;;;;;;;;6155141;28;20141;-82
2022/06/19 17:53:44;;;;;;;9.90;3.58;;;;;;;;;;6173441;28;20050;-83
2022/06/19 17:56:49;;;;;;;7.57;3.90;;;;;;;;;;6179075;28;20066;-82
2022/06/19 18:00:13;;;;;;;7.95;3.58;;;;;;;;;;6177147;28;20056;-82
2022/06/19 18:03:23;;;;;;;11.82;3.30;;;;;;;;;;6181424;28;20039;-83
2022/06/19 18:06:34;;;;;;;7.70;3.25;;;;;;;;;;6185957;28;20134;-83
2022/06/19 18:09:36;;;;;;;7.28;3.58;;;;;;;;;;6170275;28;20066;-84
2022/06/19 18:12:40;;;;;;;;;;;;;;;;;;6173391;28;20046;-82
2022/06/19 18:19:17;;;;;;;7.60;3.92;;;;;;;;;;6168806;28;20428;-83
2022/06/19 18:22:18;;;;;;;7.97;3.70;;;;;;;;;;6174084;28;20538;-82
2022/06/19 18:25:21;;;;;;;7.78;4.28;;;;;;;;;;6175554;28;20085;-82
2022/06/19 18:28:23;;;;;;;10.23;3.85;;;;;;;;;;6180440;28;20193;-81
2022/06/19 18:31:25;;;;;;;9.98;3.97;;;;;;;;;;6170093;28;20054;-82
2022/06/19 18:34:27;;;;;;;7.40;3.80;;;;;;;;;;6177424;28;20049;-81
2022/06/19 18:37:29;;;;;;;7.05;3.40;;;;;;;;;;6169366;28;20130;-81
2022/06/19 18:40:50;;;;;;;7.40;3.97;;;;;;;;;;6169319;28;20148;-82
2022/06/19 18:43:52;;;;;;;8.70;3.37;;;;;;;;;;6171497;28;20137;-83
2022/06/19 18:46:56;;;;;;;8.53;3.30;;;;;;;;;;6175991;28;20038;-82
2022/06/19 18:50:07;;;;;;;7.65;3.92;;;;;;;;;;6175341;28;20050;-82
2022/06/19 18:53:24;;;;;;;11.82;3.97;;;;;;;;;;6178442;28;20042;-81
2022/06/19 18:56:26;;;;;;;8.82;3.83;;;;;;;;;;6179539;28;20080;-83
2022/06/19 18:59:28;;;;;;;10.57;4.33;;;;;;;;;;6173420;28;20134;-81
2022/06/19 19:02:33;;;;;;;7.47;3.60;;;;;;;;;;6181649;28;20089;-81
2022/06/19 19:05:37;;;;;;;9.43;4.47;;;;;;;;;;6174466;28;20079;-81
2022/06/19 19:08:39;;;;;;;7.47;3.65;;;;;;;;;;6174518;28;20043;-81
2022/06/19 19:11:43;;;;;;;6.85;4.22;;;;;;;;;;6179529;28;20114;-82